Terminal Aerodrome Forecast
Issued by NWS

Home | Current Version | Previous Version | Text Only | Print | Product List | Glossary On
Versions: 1 2 3 4 5 6 7 8 9 10 11 12 13 14 15
000
FTUS43 KJKL 011726
TAFSJS
TAF
KSJS 011726Z 0118/0218 VRB04KT P6SM SCT040
     FM020700 00000KT 4SM BR SCT250
      TEMPO 0209/0212 1/2SM FG OVC001
     FM021300 VRB03KT P6SM SKC=

USA.gov is the U.S. government's official web portal to all federal, state and local government web resources and services.